Time;durP1;ratioP1;P1;durP2;ratioP2;P2;SDS_P1;SDS_P2;PMS_P1;PMS_P2;Temp;Humidity;BMP_temperature;BMP_pressure;BME280_temperature;BME280_humidity;BME280_pressure;Samples;Min_cycle;Max_cycle;Signal;HPM_P1;HPM_P2
2024/01/07 00:00:06;;;;;;;12.80;8.43;;;0.70;99.90;;;;;;5077300;28;20082;-87
2024/01/07 00:02:32;;;;;;;13.85;8.57;;;0.70;99.90;;;;;;5093549;28;20109;-86
2024/01/07 00:04:58;;;;;;;15.60;8.77;;;0.70;99.90;;;;;;5077059;28;20134;-86
2024/01/07 00:07:24;;;;;;;14.30;9.60;;;0.80;99.90;;;;;;5091205;28;20122;-86
2024/01/07 00:09:50;;;;;;;13.20;9.17;;;0.80;99.90;;;;;;5091955;28;20040;-86
2024/01/07 00:12:16;;;;;;;13.30;9.10;;;0.70;99.90;;;;;;5074991;28;20371;-86
2024/01/07 00:14:41;;;;;;;12.93;9.13;;;0.70;99.90;;;;;;5092146;28;20048;-87
2024/01/07 00:17:07;;;;;;;13.70;9.07;;;0.80;99.90;;;;;;5075272;28;20055;-87
2024/01/07 00:19:35;;;;;;;12.43;9.10;;;0.70;99.90;;;;;;5075014;28;20121;-86
2024/01/07 00:22:01;;;;;;;18.80;10.63;;;0.80;99.90;;;;;;5091938;28;20063;-86
2024/01/07 00:24:28;;;;;;;17.77;11.20;;;0.70;99.90;;;;;;5074704;28;20051;-86
2024/01/07 00:26:54;;;;;;;18.65;11.52;;;0.60;99.90;;;;;;5059245;28;20056;-86
2024/01/07 00:29:20;;;;;;;15.23;10.02;;;0.60;99.90;;;;;;5092046;28;20053;-87
2024/01/07 00:31:46;;;;;;;16.83;11.17;;;0.70;99.90;;;;;;5057807;28;20044;-87
2024/01/07 00:34:12;;;;;;;18.60;12.63;;;0.60;99.90;;;;;;5089709;28;20052;-87
2024/01/07 00:36:37;;;;;;;16.73;12.30;;;0.50;99.90;;;;;;5056130;28;20051;-87
2024/01/07 00:39:03;;;;;;;18.63;11.40;;;0.70;99.90;;;;;;5072048;28;20044;-87
2024/01/07 00:41:30;;;;;;;18.10;12.13;;;0.60;99.90;;;;;;5089687;28;20056;-87
2024/01/07 00:43:56;;;;;;;19.08;12.80;;;0.60;99.90;;;;;;5089214;28;20052;-86
2024/01/07 00:46:22;;;;;;;17.00;11.90;;;0.40;99.90;;;;;;5089591;28;20508;-86
2024/01/07 00:48:48;;;;;;;19.93;12.27;;;0.40;99.90;;;;;;5090189;28;20079;-86
2024/01/07 00:51:13;;;;;;;17.37;11.53;;;0.50;99.90;;;;;;5091253;28;20112;-87
2024/01/07 00:53:39;;;;;;;19.17;12.10;;;0.50;99.90;;;;;;5074938;28;20047;-86
2024/01/07 00:56:06;;;;;;;18.00;12.63;;;0.40;99.90;;;;;;5058452;28;20052;-86
2024/01/07 00:58:31;;;;;;;18.58;11.52;;;0.40;99.90;;;;;;5091569;28;20136;-86
2024/01/07 01:00:59;;;;;;;17.00;9.80;;;0.40;99.90;;;;;;5092015;28;20094;-85
2024/01/07 01:03:25;;;;;;;14.77;10.23;;;0.40;99.90;;;;;;5074617;28;20051;-87
2024/01/07 01:05:51;;;;;;;13.52;9.00;;;0.40;99.90;;;;;;5074735;28;20406;-87
2024/01/07 01:08:17;;;;;;;13.77;9.57;;;0.40;99.90;;;;;;5091234;28;20047;-87
2024/01/07 01:10:43;;;;;;;15.63;10.03;;;0.40;99.90;;;;;;5091627;28;20369;-86
2024/01/07 01:13:09;;;;;;;12.97;8.90;;;0.40;99.90;;;;;;5091585;28;20055;-87
2024/01/07 01:15:35;;;;;;;16.43;8.97;;;0.50;99.90;;;;;;5074508;28;20070;-87
2024/01/07 01:18:00;;;;;;;18.47;9.47;;;0.50;99.90;;;;;;5091510;28;20075;-87
2024/01/07 01:20:26;;;;;;;15.23;9.27;;;0.40;99.90;;;;;;5094131;28;20047;-87
2024/01/07 01:22:52;;;;;;;13.80;8.47;;;0.50;99.90;;;;;;5078256;28;20052;-86
2024/01/07 01:25:17;;;;;;;15.93;9.47;;;0.50;99.90;;;;;;5078378;28;20054;-86
2024/01/07 01:27:44;;;;;;;14.80;9.43;;;0.60;99.90;;;;;;5078046;28;20052;-87
2024/01/07 01:30:11;;;;;;;14.70;10.15;;;0.50;99.90;;;;;;5095200;28;20047;-87
2024/01/07 01:32:36;;;;;;;16.38;9.73;;;0.50;99.90;;;;;;5094489;28;20084;-86
2024/01/07 01:35:02;;;;;;;16.07;9.30;;;0.60;99.90;;;;;;5061307;28;20090;-85
2024/01/07 01:37:28;;;;;;;17.20;10.73;;;0.50;99.90;;;;;;5044507;28;20043;-86
2024/01/07 01:39:54;;;;;;;16.90;10.57;;;0.40;99.90;;;;;;5078201;28;20339;-85
2024/01/07 01:42:20;;;;;;;19.27;11.73;;;0.40;99.90;;;;;;5077711;28;20122;-85
2024/01/07 01:44:46;;;;;;;19.87;12.30;;;0.40;99.90;;;;;;5094312;28;20113;-85
2024/01/07 01:47:13;;;;;;;16.67;11.60;;;0.40;99.90;;;;;;5078005;28;20056;-85
2024/01/07 01:49:39;;;;;;;22.73;12.32;;;0.40;99.90;;;;;;5094331;28;20498;-85
2024/01/07 01:52:05;;;;;;;17.35;11.43;;;0.30;99.90;;;;;;5095588;28;20044;-85
2024/01/07 01:54:31;;;;;;;18.93;11.83;;;0.30;99.90;;;;;;5094389;28;20151;-86
2024/01/07 01:56:57;;;;;;;17.30;11.00;;;0.30;99.90;;;;;;5094507;28;20486;-85
2024/01/07 01:59:24;;;;;;;19.10;12.13;;;0.30;99.90;;;;;;5095197;28;20054;-86
2024/01/07 02:01:49;;;;;;;15.55;10.95;;;0.40;99.90;;;;;;5077580;28;20047;-85
2024/01/07 02:04:15;;;;;;;20.13;12.30;;;0.30;99.90;;;;;;5077351;28;20055;-86
2024/01/07 02:06:41;;;;;;;19.08;11.38;;;0.40;99.90;;;;;;5093925;28;20513;-85
2024/01/07 02:09:07;;;;;;;17.15;10.48;;;0.40;99.90;;;;;;5077402;28;20095;-86
2024/01/07 02:11:33;;;;;;;13.83;9.73;;;0.40;99.90;;;;;;5077269;28;20083;-85
2024/01/07 02:14:02;;;;;;;12.23;8.03;;;0.40;99.90;;;;;;5060633;28;20138;-85
2024/01/07 02:16:27;;;;;;;14.02;9.20;;;0.50;99.90;;;;;;5093911;28;20047;-86
2024/01/07 02:18:53;;;;;;;16.20;8.77;;;0.50;99.90;;;;;;5093943;28;20393;-85
2024/01/07 02:21:19;;;;;;;13.33;8.37;;;0.50;99.90;;;;;;5077297;28;20077;-85
2024/01/07 02:23:44;;;;;;;14.57;7.63;;;0.50;99.90;;;;;;5076772;28;20397;-85
2024/01/07 02:26:10;;;;;;;10.87;7.50;;;0.50;99.90;;;;;;5077120;28;20079;-85
2024/01/07 02:28:36;;;;;;;12.53;7.50;;;0.50;99.90;;;;;;5093595;28;20116;-85
2024/01/07 02:31:01;;;;;;;13.07;7.67;;;0.40;99.90;;;;;;5092492;28;20040;-85
2024/01/07 02:33:28;;;;;;;10.83;7.00;;;0.50;99.90;;;;;;5093482;28;20063;-85
2024/01/07 02:35:53;;;;;;;12.52;7.22;;;0.60;99.90;;;;;;5075159;28;20052;-85
2024/01/07 02:38:19;;;;;;;13.30;7.87;;;0.50;99.90;;;;;;5075920;28;20400;-84
2024/01/07 02:40:45;;;;;;;13.50;8.70;;;0.50;99.90;;;;;;5092651;28;20101;-85
2024/01/07 02:43:10;;;;;;;12.10;8.40;;;0.40;99.90;;;;;;5092551;28;20056;-85
2024/01/07 02:45:36;;;;;;;12.23;7.37;;;0.50;99.90;;;;;;5075567;28;20121;-85
2024/01/07 02:48:02;;;;;;;11.40;7.27;;;0.50;99.90;;;;;;5092472;28;20197;-85
2024/01/07 02:50:28;;;;;;;11.30;6.28;;;0.40;99.90;;;;;;5092577;28;20059;-88
2024/01/07 02:52:53;;;;;;;12.80;7.07;;;0.60;99.90;;;;;;5093521;28;20052;-84
2024/01/07 02:55:19;;;;;;;11.07;6.70;;;0.50;99.90;;;;;;5094432;28;20399;-84
2024/01/07 02:57:45;;;;;;;11.27;6.60;;;0.50;99.90;;;;;;5076275;28;20127;-84
2024/01/07 03:00:11;;;;;;;10.23;6.47;;;0.40;99.90;;;;;;5076334;28;20091;-84
2024/01/07 03:02:37;;;;;;;10.05;5.82;;;0.40;99.90;;;;;;5076304;28;20047;-84
2024/01/07 03:05:03;;;;;;;12.37;6.90;;;0.50;99.90;;;;;;5076255;28;20389;-84
2024/01/07 03:07:28;;;;;;;11.55;7.03;;;0.40;99.90;;;;;;5076443;28;20083;-84
2024/01/07 03:09:54;;;;;;;11.97;7.40;;;0.40;99.90;;;;;;5075801;28;20435;-84
2024/01/07 03:12:20;;;;;;;10.67;6.97;;;0.30;99.90;;;;;;5092654;28;20044;-83
2024/01/07 03:14:45;;;;;;;11.97;7.03;;;0.50;99.90;;;;;;5092750;28;20047;-84
2024/01/07 03:17:12;;;;;;;12.17;6.93;;;0.40;99.90;;;;;;5076028;28;20040;-84
2024/01/07 03:19:38;;;;;;;11.20;6.63;;;0.40;99.90;;;;;;5075765;28;20504;-83
2024/01/07 03:22:06;;;;;;;9.50;5.85;;;0.40;99.90;;;;;;5093900;28;20051;-83
2024/01/07 03:24:32;;;;;;;10.85;6.40;;;0.40;99.90;;;;;;5092716;28;20063;-86
2024/01/07 03:26:58;;;;;;;11.87;6.23;;;0.50;99.90;;;;;;5076106;28;20044;-83
2024/01/07 03:29:24;;;;;;;10.83;6.10;;;0.40;99.90;;;;;;5092716;28;20070;-83
2024/01/07 03:31:50;;;;;;;8.97;5.50;;;0.50;99.90;;;;;;5092225;28;20044;-84
2024/01/07 03:34:16;;;;;;;10.52;6.00;;;0.50;99.90;;;;;;5075864;28;20623;-83
2024/01/07 03:36:42;;;;;;;12.27;5.00;;;0.40;99.90;;;;;;5092563;28;20056;-84
2024/01/07 03:39:08;;;;;;;9.97;5.43;;;0.50;99.90;;;;;;5092720;28;20044;-83
2024/01/07 03:41:33;;;;;;;11.25;6.05;;;0.40;99.90;;;;;;5092081;28;20048;-83
2024/01/07 03:43:59;;;;;;;12.30;6.27;;;0.50;99.90;;;;;;5093632;28;20052;-83
2024/01/07 03:46:25;;;;;;;9.83;6.27;;;0.50;99.90;;;;;;5075241;28;20055;-83
2024/01/07 03:48:51;;;;;;;11.33;5.87;;;0.50;99.90;;;;;;5092388;28;20155;-83
2024/01/07 03:51:16;;;;;;;10.40;6.13;;;0.40;99.90;;;;;;5092325;28;20044;-83
2024/01/07 03:53:42;;;;;;;11.17;6.20;;;0.50;99.90;;;;;;5092290;28;20052;-83
2024/01/07 03:56:08;;;;;;;8.60;5.07;;;0.40;99.90;;;;;;5092239;28;20040;-82
2024/01/07 03:58:34;;;;;;;8.93;5.30;;;0.40;99.90;;;;;;5075601;28;20048;-83
2024/01/07 04:01:00;;;;;;;10.57;5.35;;;0.50;99.90;;;;;;5091964;28;20055;-83
2024/01/07 04:03:26;;;;;;;9.47;5.13;;;0.50;99.90;;;;;;5058936;28;20044;-84
2024/01/07 04:05:52;;;;;;;10.17;5.70;;;0.50;99.90;;;;;;5092127;28;20278;-83
2024/01/07 04:08:18;;;;;;;7.60;4.57;;;0.50;99.90;;;;;;5092309;28;20052;-83
2024/01/07 04:10:44;;;;;;;7.77;5.03;;;0.40;99.90;;;;;;5091926;28;20052;-83
2024/01/07 04:13:09;;;;;;;10.67;5.10;;;0.50;99.90;;;;;;5075436;28;20127;-83
2024/01/07 04:15:35;;;;;;;7.13;4.10;;;0.50;99.90;;;;;;5091916;28;20047;-84
2024/01/07 04:18:03;;;;;;;7.27;4.43;;;0.50;99.90;;;;;;5074967;28;20052;-83
2024/01/07 04:20:29;;;;;;;9.20;4.80;;;0.50;99.90;;;;;;5092251;28;20127;-82
2024/01/07 04:22:55;;;;;;;8.10;4.10;;;0.50;99.90;;;;;;5075165;28;20486;-83
2024/01/07 04:25:21;;;;;;;6.67;4.00;;;0.50;99.90;;;;;;5092437;28;20047;-82
2024/01/07 04:27:46;;;;;;;13.07;4.87;;;0.50;99.90;;;;;;5092814;28;20794;-83
2024/01/07 04:30:12;;;;;;;7.70;4.57;;;0.50;99.90;;;;;;5091953;28;20039;-83
2024/01/07 04:32:38;;;;;;;7.03;3.87;;;0.40;99.90;;;;;;5091460;28;20044;-83
2024/01/07 04:35:04;;;;;;;9.77;4.27;;;0.40;99.90;;;;;;5058057;28;20044;-83
2024/01/07 04:37:30;;;;;;;7.65;3.80;;;0.50;99.90;;;;;;5091862;28;20044;-83
2024/01/07 04:39:55;;;;;;;8.77;3.83;;;0.50;99.90;;;;;;5091738;28;20051;-83
2024/01/07 04:42:21;;;;;;;7.93;4.03;;;0.50;99.90;;;;;;5075020;28;20138;-84
2024/01/07 04:44:47;;;;;;;6.13;3.00;;;0.50;99.90;;;;;;5074773;28;20052;-85
2024/01/07 04:47:35;;;;;;;6.87;3.40;;;0.50;99.90;;;;;;5092055;28;20123;-83
2024/01/07 04:50:02;;;;;;;7.05;3.42;;;0.50;99.90;;;;;;5092118;28;20060;-84
2024/01/07 04:52:28;;;;;;;6.95;3.22;;;0.50;99.90;;;;;;5074900;28;20051;-83
2024/01/07 04:54:55;;;;;;;6.63;3.40;;;0.50;99.90;;;;;;5060494;28;20397;-84
2024/01/07 04:57:21;;;;;;;7.05;3.55;;;0.50;99.90;;;;;;5078795;28;20056;-84
2024/01/07 04:59:48;;;;;;;9.63;4.15;;;0.50;99.90;;;;;;5096675;28;20409;-83
2024/01/07 05:02:14;;;;;;;7.45;4.03;;;0.40;99.90;;;;;;5096695;28;20079;-82
2024/01/07 05:04:41;;;;;;;8.87;3.53;;;0.40;99.90;;;;;;5095745;28;20117;-82
2024/01/07 05:07:06;;;;;;;7.90;3.33;;;0.40;99.90;;;;;;5078365;28;20044;-83
2024/01/07 05:09:32;;;;;;;8.37;3.63;;;0.40;99.90;;;;;;5095501;28;20392;-83
2024/01/07 05:11:59;;;;;;;6.25;3.58;;;0.60;99.90;;;;;;5094893;28;20536;-83
2024/01/07 05:14:24;;;;;;;6.65;3.42;;;0.60;99.90;;;;;;5096474;28;20062;-82
2024/01/07 05:16:50;;;;;;;5.90;2.70;;;0.50;99.90;;;;;;5095032;28;20612;-83
2024/01/07 05:19:16;;;;;;;5.60;2.83;;;0.50;99.90;;;;;;5095635;28;20040;-82
2024/01/07 05:21:41;;;;;;;7.30;2.90;;;0.50;99.90;;;;;;5078508;28;20066;-82
2024/01/07 05:24:07;;;;;;;6.20;3.10;;;0.50;99.90;;;;;;5094716;28;20044;-82
2024/01/07 05:26:43;;;;;;;6.20;2.57;;;0.50;99.90;;;;;;5094934;28;20086;-83
2024/01/07 05:29:09;;;;;;;8.10;2.40;;;0.60;99.90;;;;;;5094776;28;20047;-82
2024/01/07 05:31:34;;;;;;;5.37;2.77;;;0.50;99.90;;;;;;5094977;28;20048;-82
2024/01/07 05:34:00;;;;;;;8.30;3.00;;;0.50;99.90;;;;;;5094852;28;20047;-83
2024/01/07 05:36:26;;;;;;;5.20;2.67;;;0.40;99.90;;;;;;5095004;28;20073;-83
2024/01/07 05:38:52;;;;;;;7.13;2.93;;;0.50;99.90;;;;;;5077870;28;20108;-83
2024/01/07 05:41:17;;;;;;;5.80;2.10;;;0.60;99.90;;;;;;5077544;28;20044;-83
2024/01/07 05:43:43;;;;;;;7.60;2.43;;;0.50;99.90;;;;;;5077894;28;20137;-83
2024/01/07 05:46:10;;;;;;;5.77;1.97;;;0.50;99.90;;;;;;5077901;28;20113;-83
2024/01/07 05:48:44;;;;;;;5.80;2.58;;;0.50;99.90;;;;;;5061288;28;20508;-82
2024/01/07 05:51:10;;;;;;;4.35;2.13;;;0.50;99.90;;;;;;5077416;28;20123;-84
2024/01/07 05:53:35;;;;;;;6.90;2.20;;;0.50;99.90;;;;;;5094752;28;20181;-83
2024/01/07 05:56:01;;;;;;;6.03;2.40;;;0.60;99.90;;;;;;5094349;28;20052;-83
2024/01/07 05:58:27;;;;;;;5.38;1.83;;;0.50;99.90;;;;;;5094653;28;20048;-83
2024/01/07 06:00:53;;;;;;;6.83;2.63;;;0.50;99.90;;;;;;5094453;28;20083;-83
2024/01/07 06:03:19;;;;;;;5.67;2.10;;;0.40;99.90;;;;;;5095762;28;20490;-83
2024/01/07 06:05:44;;;;;;;6.37;2.73;;;0.50;99.90;;;;;;5095501;28;20083;-83
2024/01/07 06:08:10;;;;;;;5.87;2.40;;;0.50;99.90;;;;;;5093854;28;20051;-83
2024/01/07 06:10:36;;;;;;;8.87;2.50;;;0.60;99.90;;;;;;5077236;28;20080;-83
2024/01/07 06:13:03;;;;;;;4.00;1.80;;;0.50;99.90;;;;;;5093927;28;20048;-83
2024/01/07 06:15:29;;;;;;;6.63;2.20;;;0.60;99.90;;;;;;5094256;28;20048;-83
2024/01/07 06:17:55;;;;;;;5.57;1.90;;;0.50;99.90;;;;;;5094912;28;20127;-83
2024/01/07 06:20:21;;;;;;;4.40;2.33;;;0.60;99.90;;;;;;5093892;28;20135;-84
2024/01/07 06:22:47;;;;;;;5.25;2.10;;;0.60;99.90;;;;;;5093808;28;20075;-84
2024/01/07 06:25:13;;;;;;;5.32;2.05;;;0.50;99.90;;;;;;5093778;28;20450;-83
2024/01/07 06:27:39;;;;;;;5.27;1.80;;;0.50;99.90;;;;;;5094042;28;20082;-83
2024/01/07 06:30:06;;;;;;;7.32;2.38;;;0.50;99.90;;;;;;5093936;28;20406;-83
2024/01/07 06:32:32;;;;;;;4.53;2.05;;;0.50;99.90;;;;;;5076348;28;20086;-83
2024/01/07 06:34:58;;;;;;;5.70;2.00;;;0.60;99.90;;;;;;5093558;28;20052;-84
2024/01/07 06:37:25;;;;;;;4.82;1.77;;;0.50;99.90;;;;;;5093794;28;20135;-83
2024/01/07 06:39:51;;;;;;;4.25;1.60;;;0.50;99.90;;;;;;5077016;28;20101;-84
2024/01/07 06:42:17;;;;;;;6.63;2.17;;;0.60;99.90;;;;;;5076769;28;20110;-84
2024/01/07 06:44:43;;;;;;;3.87;1.60;;;0.60;99.90;;;;;;5076477;28;20059;-83
2024/01/07 06:47:08;;;;;;;4.63;1.70;;;0.70;99.90;;;;;;5076494;28;20741;-84
2024/01/07 06:49:34;;;;;;;4.77;1.70;;;0.70;99.90;;;;;;5093208;28;20043;-84
2024/01/07 06:52:00;;;;;;;4.07;1.67;;;0.70;99.90;;;;;;5076261;28;20044;-84
2024/01/07 06:54:25;;;;;;;5.07;1.80;;;0.70;99.90;;;;;;5076454;28;20189;-84
2024/01/07 06:56:51;;;;;;;4.17;1.63;;;0.60;99.90;;;;;;5076862;28;20131;-84
2024/01/07 06:59:17;;;;;;;5.27;1.77;;;0.60;99.90;;;;;;5076419;28;20044;-84
2024/01/07 07:01:43;;;;;;;3.33;1.73;;;0.60;99.90;;;;;;5093313;28;20355;-84
2024/01/07 07:04:08;;;;;;;5.40;1.80;;;0.60;99.90;;;;;;5092985;28;20071;-85
2024/01/07 07:06:34;;;;;;;4.73;1.50;;;0.50;99.90;;;;;;5093030;28;20052;-85
2024/01/07 07:09:00;;;;;;;4.63;1.87;;;0.60;99.90;;;;;;5093065;28;20112;-85
2024/01/07 07:11:26;;;;;;;4.95;2.00;;;0.70;99.90;;;;;;5076090;28;20298;-84
2024/01/07 07:13:52;;;;;;;5.00;1.90;;;0.60;99.90;;;;;;5076187;28;20401;-85
2024/01/07 07:16:17;;;;;;;9.77;2.00;;;0.60;99.90;;;;;;5092602;28;20099;-85
2024/01/07 07:18:43;;;;;;;5.00;1.70;;;0.60;99.90;;;;;;5059307;28;20478;-85
2024/01/07 07:21:09;;;;;;;6.23;1.60;;;0.70;99.90;;;;;;5076014;28;20105;-85
2024/01/07 07:23:34;;;;;;;5.53;1.83;;;0.60;99.90;;;;;;5076147;28;20048;-84
2024/01/07 07:26:00;;;;;;;4.00;2.00;;;0.60;99.90;;;;;;5075933;28;20052;-86
2024/01/07 07:28:26;;;;;;;4.03;1.93;;;0.60;99.90;;;;;;5092884;28;20052;-85
2024/01/07 07:30:52;;;;;;;6.47;1.50;;;0.70;99.90;;;;;;5092657;28;20083;-86
2024/01/07 07:33:18;;;;;;;4.80;1.50;;;0.70;99.90;;;;;;5075694;28;20394;-85
2024/01/07 07:35:46;;;;;;;3.70;1.20;;;0.60;99.90;;;;;;5092593;28;20181;-85
2024/01/07 07:38:11;;;;;;;7.13;1.60;;;0.70;99.90;;;;;;5092940;28;20052;-85
2024/01/07 07:40:37;;;;;;;3.03;1.50;;;0.70;99.90;;;;;;5092749;28;20097;-85
2024/01/07 07:43:03;;;;;;;4.33;1.70;;;0.70;99.90;;;;;;5058924;28;20052;-85
2024/01/07 07:45:29;;;;;;;3.73;1.80;;;0.60;99.90;;;;;;5092823;28;20052;-85
2024/01/07 07:47:54;;;;;;;3.47;1.30;;;0.60;99.90;;;;;;5075643;28;20051;-85
2024/01/07 07:50:21;;;;;;;4.83;1.67;;;0.60;99.90;;;;;;5075351;28;20078;-85
2024/01/07 07:52:47;;;;;;;6.28;1.90;;;0.60;99.90;;;;;;5075477;28;20047;-85
2024/01/07 07:55:12;;;;;;;4.50;1.53;;;0.60;99.90;;;;;;5075546;28;20048;-85
2024/01/07 07:57:38;;;;;;;5.87;1.80;;;0.60;99.90;;;;;;5075567;28;20082;-85
2024/01/07 08:00:06;;;;;;;5.97;2.50;;;0.60;99.90;;;;;;5075355;28;20040;-84
2024/01/07 08:02:32;;;;;;;4.80;1.75;;;0.70;99.90;;;;;;5092527;28;20055;-85
2024/01/07 08:04:58;;;;;;;4.00;1.57;;;0.60;99.90;;;;;;5075519;28;20397;-84
2024/01/07 08:07:24;;;;;;;3.80;1.40;;;0.60;99.90;;;;;;5091994;28;20064;-83
2024/01/07 08:09:49;;;;;;;4.30;1.55;;;0.60;99.90;;;;;;5092446;28;20059;-80
2024/01/07 08:12:15;;;;;;;9.10;2.00;;;0.50;99.90;;;;;;5091889;28;20473;-87
2024/01/07 08:14:41;;;;;;;5.67;1.40;;;0.50;99.90;;;;;;5075432;28;20127;-87
2024/01/07 08:17:07;;;;;;;5.77;1.60;;;0.40;99.90;;;;;;5091949;28;20052;-89
2024/01/07 08:19:33;;;;;;;5.22;1.48;;;0.40;99.90;;;;;;5092096;28;20040;-87
2024/01/07 08:21:59;;;;;;;4.93;1.80;;;0.40;99.90;;;;;;5092346;28;20192;-86
2024/01/07 08:24:25;;;;;;;4.73;1.97;;;0.30;99.90;;;;;;5075222;28;20134;-75
2024/01/07 08:26:51;;;;;;;5.03;1.30;;;0.30;99.90;;;;;;5093043;28;20056;-80
2024/01/07 08:29:17;;;;;;;2.97;1.40;;;0.30;99.90;;;;;;5093958;28;20036;-81
2024/01/07 08:31:43;;;;;;;3.97;1.60;;;0.20;99.90;;;;;;5100081;28;20047;-79
2024/01/07 08:34:09;;;;;;;3.70;1.67;;;0.10;99.90;;;;;;5095902;28;20470;-79
2024/01/07 08:36:34;;;;;;;4.30;1.47;;;0.20;99.90;;;;;;5097479;28;20044;-79
2024/01/07 08:39:00;;;;;;;5.87;2.20;;;0.20;99.90;;;;;;5097104;28;20539;-79
2024/01/07 08:41:26;;;;;;;5.63;1.73;;;0.20;99.90;;;;;;5096888;28;20414;-79
2024/01/07 08:43:52;;;;;;;4.00;1.73;;;0.20;99.90;;;;;;5096669;28;20071;-79
2024/01/07 08:46:21;;;;;;;4.43;2.10;;;0.20;99.90;;;;;;5096687;28;20274;-79
2024/01/07 08:48:47;;;;;;;4.93;1.77;;;0.10;99.90;;;;;;5096798;28;20391;-79
2024/01/07 08:51:13;;;;;;;7.60;2.00;;;0.00;99.90;;;;;;5095783;28;20048;-80
2024/01/07 08:53:40;;;;;;;6.30;1.90;;;0.10;99.90;;;;;;5096870;28;20048;-79
2024/01/07 08:56:06;;;;;;;5.82;1.88;;;0.10;99.90;;;;;;5096826;28;20425;-79
2024/01/07 08:58:32;;;;;;;3.83;1.63;;;0.10;99.90;;;;;;5096556;28;20136;-79
2024/01/07 09:00:58;;;;;;;7.47;1.80;;;0.20;99.90;;;;;;5095708;28;20508;-80
2024/01/07 09:03:24;;;;;;;5.17;1.93;;;0.30;99.90;;;;;;5096302;28;20119;-81
2024/01/07 09:05:50;;;;;;;5.33;2.67;;;0.30;99.90;;;;;;5078754;28;20116;-81
2024/01/07 09:08:15;;;;;;;6.40;2.30;;;0.40;99.90;;;;;;5096457;28;20500;-80
2024/01/07 09:10:41;;;;;;;6.93;2.80;;;0.50;99.90;;;;;;5096461;28;20051;-78
2024/01/07 09:13:07;;;;;;;4.20;1.50;;;0.40;99.90;;;;;;5096569;28;20044;-81
2024/01/07 09:15:32;;;;;;;5.63;1.90;;;0.50;99.90;;;;;;5095168;28;20051;-81
2024/01/07 09:17:58;;;;;;;6.57;2.47;;;0.50;99.90;;;;;;5094911;28;20059;-80
2024/01/07 09:20:24;;;;;;;5.47;1.70;;;0.50;99.90;;;;;;5096281;28;20062;-81
2024/01/07 09:22:50;;;;;;;5.73;1.73;;;0.60;99.90;;;;;;5096277;28;20047;-77
2024/01/07 09:25:16;;;;;;;5.33;1.80;;;0.50;99.90;;;;;;5097854;28;20131;-80
2024/01/07 09:27:42;;;;;;;4.57;1.63;;;0.60;99.90;;;;;;5096026;28;20513;-78
2024/01/07 09:30:10;;;;;;;4.20;1.70;;;0.60;99.90;;;;;;5096145;28;20051;-79
2024/01/07 09:32:36;;;;;;;3.78;1.60;;;0.60;99.90;;;;;;5095758;28;20093;-79
2024/01/07 09:35:03;;;;;;;4.23;1.83;;;0.60;99.90;;;;;;5078124;28;20047;-78
2024/01/07 09:37:28;;;;;;;4.28;1.60;;;0.70;99.90;;;;;;5095842;28;20316;-78
2024/01/07 09:39:54;;;;;;;5.93;1.87;;;0.60;99.90;;;;;;5095658;28;20087;-78
2024/01/07 09:42:20;;;;;;;2.93;1.50;;;0.60;99.90;;;;;;5095604;28;20401;-79
2024/01/07 09:44:46;;;;;;;2.87;1.27;;;0.60;99.90;;;;;;5094752;28;20060;-78
2024/01/07 09:47:13;;;;;;;3.73;1.43;;;0.80;99.90;;;;;;5094345;28;20102;-81
2024/01/07 09:49:39;;;;;;;4.50;1.33;;;0.70;99.90;;;;;;5093635;28;20275;-81
2024/01/07 09:52:05;;;;;;;4.32;1.77;;;0.70;99.90;;;;;;5093455;28;20127;-79
2024/01/07 09:54:34;;;;;;;5.35;1.90;;;0.70;99.90;;;;;;5093278;28;20039;-81
2024/01/07 09:57:06;;;;;;;8.02;1.80;;;0.80;99.90;;;;;;5094549;28;20073;-80
2024/01/07 09:59:32;;;;;;;4.57;1.73;;;0.80;99.90;;;;;;5094167;28;20055;-81
2024/01/07 10:01:58;;;;;;;5.70;1.92;;;0.80;99.90;;;;;;5094303;28;20107;-80
2024/01/07 10:04:25;;;;;;;3.95;1.70;;;0.80;99.90;;;;;;5094281;28;20047;-79
2024/01/07 10:06:53;;;;;;;5.60;1.73;;;0.80;99.90;;;;;;5094453;28;20421;-78
2024/01/07 10:09:21;;;;;;;4.60;1.83;;;0.80;99.90;;;;;;5094072;28;20051;-80
2024/01/07 10:11:47;;;;;;;4.50;1.92;;;0.80;99.90;;;;;;5094352;28;20102;-84
2024/01/07 10:14:13;;;;;;;6.73;2.03;;;0.90;99.90;;;;;;5094143;28;20570;-83
2024/01/07 10:16:39;;;;;;;4.70;2.50;;;0.90;99.90;;;;;;5093991;28;20515;-82
2024/01/07 10:19:07;;;;;;;5.67;1.90;;;0.90;99.90;;;;;;5093287;28;20048;-79
2024/01/07 10:21:33;;;;;;;4.75;1.90;;;0.80;99.90;;;;;;5093916;28;20123;-83
2024/01/07 10:24:12;;;;;;;7.32;3.60;;;0.90;99.90;;;;;;5094122;28;20048;-81
2024/01/07 10:26:40;;;;;;;5.38;1.98;;;0.90;99.90;;;;;;5093708;28;20501;-81
2024/01/07 10:29:06;;;;;;;6.45;1.95;;;0.90;99.90;;;;;;5092874;28;20130;-85
2024/01/07 10:31:32;;;;;;;5.53;2.00;;;1.00;99.90;;;;;;5093803;28;20127;-84
2024/01/07 10:33:58;;;;;;;8.65;2.20;;;1.00;99.90;;;;;;5093943;28;20120;-80
2024/01/07 10:36:26;;;;;;;3.20;1.63;;;0.90;99.90;;;;;;5093749;28;20044;-85
2024/01/07 10:38:54;;;;;;;4.75;2.05;;;1.00;99.90;;;;;;5092527;28;20047;-83
2024/01/07 10:41:20;;;;;;;4.00;1.83;;;0.90;99.90;;;;;;5093659;28;20056;-83
2024/01/07 10:43:50;;;;;;;5.03;1.93;;;1.00;99.90;;;;;;5054527;28;1124741;-79
2024/01/07 10:46:16;;;;;;;3.25;1.58;;;1.00;99.90;;;;;;5094793;28;20056;-83
2024/01/07 10:48:55;;;;;;;7.32;2.40;;;1.00;99.90;;;;;;5094387;28;20177;-79
2024/01/07 10:51:22;;;;;;;5.13;1.88;;;1.00;99.90;;;;;;5093705;28;20052;-83
2024/01/07 10:53:56;;;;;;;6.38;1.77;;;1.00;99.90;;;;;;5094274;28;20405;-81
2024/01/07 10:56:24;;;;;;;3.70;1.65;;;1.10;99.90;;;;;;5093567;28;20086;-81
2024/01/07 10:58:57;;;;;;;5.03;2.22;;;1.00;99.90;;;;;;5093241;28;20048;-81
2024/01/07 11:01:23;;;;;;;4.57;2.05;;;1.10;99.90;;;;;;5094143;28;20545;-83
2024/01/07 11:04:06;;;;;;;4.38;1.85;;;1.10;99.90;;;;;;5094290;28;20067;-78
2024/01/07 11:06:49;;;;;;;7.18;2.05;;;1.20;99.90;;;;;;5094066;28;20044;-78
2024/01/07 11:09:23;;;;;;;5.15;2.25;;;1.20;99.90;;;;;;5094319;28;20048;-83
2024/01/07 11:11:50;;;;;;;5.88;3.53;;;1.20;99.90;;;;;;5094499;28;20519;-83
2024/01/07 11:14:39;;;;;;;5.10;2.20;;;1.20;99.90;;;;;;5094289;28;20048;-81
2024/01/07 11:17:06;;;;;;;4.13;2.10;;;1.10;99.90;;;;;;5094035;28;20048;-79
2024/01/07 11:19:32;;;;;;;4.70;1.77;;;1.10;99.90;;;;;;5093858;28;20134;-75
2024/01/07 11:22:30;;;;;;;6.78;2.40;;;1.10;99.90;;;;;;5093572;28;20036;-75
2024/01/07 11:24:57;;;;;;;4.40;2.03;;;1.00;99.90;;;;;;5092175;28;20506;-75
2024/01/07 11:27:31;;;;;;;6.57;3.00;;;1.00;99.90;;;;;;5093013;28;20048;-76
2024/01/07 11:29:58;;;;;;;6.13;2.05;;;1.00;99.90;;;;;;5093430;28;20051;-80
2024/01/07 11:32:28;;;;;;;5.50;1.98;;;1.00;99.90;;;;;;5090423;28;20040;-80
2024/01/07 11:34:56;;;;;;;6.88;2.35;;;1.10;99.90;;;;;;5093588;28;20174;-77
2024/01/07 11:37:22;;;;;;;5.80;2.20;;;1.10;99.90;;;;;;5092719;28;20048;-78
2024/01/07 11:39:50;;;;;;;6.03;2.08;;;1.20;99.90;;;;;;5093406;28;20044;-77
2024/01/07 11:42:17;;;;;;;6.28;2.17;;;1.20;99.90;;;;;;5093739;28;20043;-79
2024/01/07 11:44:53;;;;;;;5.55;2.25;;;1.20;99.90;;;;;;5093092;28;20454;-77
2024/01/07 11:47:20;;;;;;;8.80;2.80;;;1.20;99.90;;;;;;5093444;28;20493;-78
2024/01/07 11:49:46;;;;;;;8.43;2.20;;;1.20;99.90;;;;;;5093318;28;20635;-78
2024/01/07 11:52:13;;;;;;;3.33;1.77;;;1.30;99.90;;;;;;5093243;28;20127;-80
2024/01/07 11:54:39;;;;;;;6.28;2.47;;;1.30;99.90;;;;;;5093104;28;20052;-80
2024/01/07 11:57:09;;;;;;;5.88;2.10;;;1.40;99.90;;;;;;5093474;28;20040;-79
2024/01/07 11:59:36;;;;;;;4.90;1.77;;;1.30;99.90;;;;;;5093290;28;20440;-82
2024/01/07 12:02:06;;;;;;;4.50;1.90;;;1.40;99.90;;;;;;5093696;28;20048;-81
2024/01/07 12:04:33;;;;;;;6.90;2.75;;;1.30;99.90;;;;;;5092786;28;20048;-80
2024/01/07 12:06:59;;;;;;;5.35;2.70;;;1.30;99.90;;;;;;5089450;28;20094;-82
2024/01/07 12:09:28;;;;;;;5.72;2.75;;;1.40;99.90;;;;;;5091578;28;20097;-81
2024/01/07 12:11:54;;;;;;;6.43;2.90;;;1.30;99.90;;;;;;5091001;28;20050;-81
2024/01/07 12:14:20;;;;;;;4.70;2.20;;;1.30;99.90;;;;;;5092069;28;20048;-80
2024/01/07 12:16:46;;;;;;;6.13;2.63;;;1.40;99.90;;;;;;5089761;28;20047;-80
2024/01/07 12:19:12;;;;;;;9.50;4.27;;;1.50;99.90;;;;;;5091179;28;20485;-80
2024/01/07 12:21:38;;;;;;;6.97;2.88;;;1.40;99.90;;;;;;5089126;28;20278;-81
2024/01/07 12:24:05;;;;;;;7.43;2.83;;;1.40;99.90;;;;;;5091758;28;20052;-80
2024/01/07 12:26:33;;;;;;;7.53;3.00;;;1.30;99.90;;;;;;5091552;28;20408;-80
2024/01/07 12:29:03;;;;;;;7.30;2.90;;;1.30;99.90;;;;;;5089124;28;20066;-80
2024/01/07 12:31:33;;;;;;;8.05;3.17;;;1.30;99.90;;;;;;5091743;28;20048;-82
2024/01/07 12:33:59;;;;;;;8.05;2.90;;;1.30;99.90;;;;;;5091848;28;20058;-82
2024/01/07 12:36:26;;;;;;;6.75;2.80;;;1.20;99.90;;;;;;5091653;28;20113;-81
2024/01/07 12:38:54;;;;;;;7.00;3.10;;;1.30;99.90;;;;;;5091023;28;20452;-80
2024/01/07 12:41:23;;;;;;;9.57;3.40;;;1.30;99.90;;;;;;5091630;28;20044;-82
2024/01/07 12:43:50;;;;;;;9.27;3.90;;;1.30;99.90;;;;;;5091449;28;20116;-82
2024/01/07 12:46:16;;;;;;;8.30;3.33;;;1.40;99.90;;;;;;5090742;28;20059;-80
2024/01/07 12:48:41;;;;;;;9.17;3.47;;;1.30;99.90;;;;;;5090382;28;20052;-80